Royersford, PA

4:47 AM EDT on October 23, 2014 (GMT -0400)
APRSWXNET Collegeville PA US | Change Station
CLOSE
Current Station
Personal Weather Station
Location: Schwenksville, PA
Elevation: 246 ft
Nearby Weather Stations

Elev 246 ft 40.22 °N, 75.48 °W | Updated 47 minutes ago

Scattered Clouds
Scattered Clouds
50 °F
Feels Like 47 °F
N
8
Wind Variable Wind from WNW
Gusts 14.0 mph

Today
High -- | Low -- °F
--% Chance of Precip.
Yesterday
High -- | Low -- °F
Precip. -- in
7:21 AM 6:10 PM
Waning Crescent, 0% visible
Pressure 29.79 in
Visibility 10.0 miles
Clouds Few 6000 ft
Scattered Clouds 11000 ft
Windchill 47 °F
Dew Point 39 °F
Humidity 65%
Rainfall 0.12 in
Snow Depth Not available.
UV 0 out of 12
Pollen .30 out of 12
Air Quality Not available.
Flu Activity Sporadic
METAR KPTW 230754Z AUTO 35012G20KT 10SM FEW060 SCT110 11/06 A2979 RMK AO2 SLP086 T01060061

More Conditions Fewer Conditions

Pressure 29.79 in
Visibility 10.0 miles
Clouds Few 6000 ft
Scattered Clouds 11000 ft
Windchill 47 °F
Dew Point 39 °F
Humidity 65%
Rainfall 0.12 in
Snow Depth Not available.
UV 0 out of 12
Pollen .30 out of 12
Air Quality Not available.
Flu Activity Sporadic
METAR KPTW 230754Z AUTO 35012G20KT 10SM FEW060 SCT110 11/06 A2979 RMK AO2 SLP086 T01060061

More Conditions Fewer Conditions

10-Day Weather Forecast

Almanac

Astronomy

Oct. 23, 2014 Rise Set
Actual Time 7:21 AM EDT 6:10 PM EDT
Civil Twilight 6:53 AM EDT 6:38 PM EDT
Nautical Twilight 6:21 AM EDT 7:10 PM EDT
Astronomical Twilight 5:50 AM EDT 7:41 PM EDT
Moon 6:58 AM EDT 6:11 PM EDT
Length of Visible Light 11h 44m
Length of Day
10h 49m
Tomorrow will be 2m 28s shorter.
Waning Crescent, 0% of the Moon is Illuminated
Today
Waning Crescent
Oct 23
New
Oct 30
First Quarter
Nov 6
Full
Nov 14
Last Quarter

Today's Extremes

State Highs State Lows

Community

WunderPhotos

Upload Photos

1,764,197 photos uploaded!

Nearby

Snow Depth

Station Depth Elevation
No new snow has been reported.

Earthquake Activity

City Distance Mag. Time & Date
No recent earthquake activity has been reported nearby.
Minimum magnitude displayed is 2.5.

Coastal Water Temperatures

Place Temperature
No Stations Reporting

Nearby Weather Stations